Time;durP1;ratioP1;P1;durP2;ratioP2;P2;SDS_P1;SDS_P2;PMS_P1;PMS_P2;Temp;Humidity;BMP_temperature;BMP_pressure;BME280_temperature;BME280_humidity;BME280_pressure;Samples;Min_cycle;Max_cycle;Signal;HPM_P1;HPM_P2
2023/09/15 00:00:29;;;;;;;10.02;7.25;;;13.00;99.90;;;;;;5032575;28;20021;-76
2023/09/15 00:02:56;;;;;;;9.75;6.22;;;13.00;99.90;;;;;;5032577;28;20026;-73
2023/09/15 00:05:33;;;;;;;8.43;6.30;;;13.00;99.90;;;;;;5032208;28;20036;-73
2023/09/15 00:08:04;;;;;;;6.38;4.95;;;13.00;99.90;;;;;;5022317;28;20101;-77
2023/09/15 00:10:30;;;;;;;7.03;5.65;;;13.00;99.90;;;;;;5031220;28;20021;-73
2023/09/15 00:12:56;;;;;;;8.40;5.70;;;13.00;99.90;;;;;;5030941;28;20503;-73
2023/09/15 00:15:21;;;;;;;5.35;4.00;;;13.00;99.90;;;;;;5030499;28;20049;-77
2023/09/15 00:17:47;;;;;;;6.60;5.20;;;13.00;99.90;;;;;;5043970;28;20021;-73
2023/09/15 00:20:13;;;;;;;8.93;5.05;;;13.00;99.90;;;;;;5049890;28;20474;-73
2023/09/15 00:22:48;;;;;;;7.45;6.28;;;13.00;99.90;;;;;;5038370;28;20039;-77
2023/09/15 00:25:18;;;;;;;8.98;6.38;;;13.10;99.90;;;;;;5038287;28;20061;-73
2023/09/15 00:27:47;;;;;;;6.35;5.70;;;13.10;99.90;;;;;;5037782;28;20082;-77
2023/09/15 00:30:17;;;;;;;6.55;5.47;;;13.10;99.90;;;;;;5051233;28;20056;-76
2023/09/15 00:32:45;;;;;;;13.55;5.40;;;13.10;99.90;;;;;;5047630;28;20385;-73
2023/09/15 00:35:11;;;;;;;8.90;6.38;;;13.20;99.90;;;;;;5030501;28;20124;-73
2023/09/15 00:37:37;;;;;;;6.75;5.93;;;13.20;99.90;;;;;;5030327;28;20132;-76
2023/09/15 00:40:07;;;;;;;10.25;6.93;;;13.30;99.90;;;;;;5031802;28;20105;-76
2023/09/15 00:42:33;;;;;;;9.07;7.03;;;13.30;99.90;;;;;;5031605;28;20018;-76
2023/09/15 00:45:04;;;;;;;10.23;7.70;;;13.40;99.90;;;;;;5032398;28;20026;-72
2023/09/15 00:47:31;;;;;;;12.30;8.23;;;13.40;99.90;;;;;;5030251;28;20078;-77
2023/09/15 00:49:58;;;;;;;11.25;7.38;;;13.40;99.90;;;;;;5032469;28;20049;-77
2023/09/15 00:52:24;;;;;;;10.70;7.47;;;13.40;99.90;;;;;;5031018;28;20091;-77
2023/09/15 00:54:49;;;;;;;8.82;7.03;;;13.50;99.90;;;;;;5031634;28;20108;-76
2023/09/15 00:57:16;;;;;;;8.20;6.55;;;13.50;99.90;;;;;;5030035;28;20047;-73
2023/09/15 00:59:42;;;;;;;6.93;6.22;;;13.50;99.90;;;;;;5031174;28;20051;-76
2023/09/15 01:02:08;;;;;;;8.27;7.38;;;13.50;99.90;;;;;;5032138;28;20053;-73
2023/09/15 01:04:35;;;;;;;6.90;6.20;;;13.50;99.90;;;;;;5030411;28;20069;-73
2023/09/15 01:07:05;;;;;;;9.13;6.20;;;13.50;99.90;;;;;;5028388;28;20022;-75
2023/09/15 01:09:31;;;;;;;7.97;5.95;;;13.50;99.90;;;;;;5022645;28;20379;-73
2023/09/15 01:11:57;;;;;;;7.03;6.32;;;13.40;99.90;;;;;;5029584;28;20017;-76
2023/09/15 01:14:23;;;;;;;7.45;6.75;;;13.50;99.90;;;;;;5041927;28;20077;-73
2023/09/15 01:17:08;;;;;;;8.45;6.57;;;13.50;99.90;;;;;;5046425;28;20438;-76
2023/09/15 01:19:55;;;;;;;8.63;6.72;;;13.50;99.90;;;;;;5042881;28;20025;-76
2023/09/15 01:22:53;;;;;;;8.35;6.20;;;13.50;99.90;;;;;;5029247;28;20153;-76
2023/09/15 01:26:04;;;;;;;7.28;6.53;;;13.50;99.90;;;;;;5043674;28;20036;-76
2023/09/15 01:29:02;;;;;;;7.80;6.85;;;13.50;99.90;;;;;;5027719;28;20506;-76
2023/09/15 01:31:29;;;;;;;8.60;7.25;;;13.50;99.90;;;;;;5030936;28;20483;-76
2023/09/15 01:33:55;;;;;;;8.25;7.25;;;13.50;99.90;;;;;;5030658;28;20083;-77
2023/09/15 01:36:21;;;;;;;10.98;8.20;;;13.40;99.90;;;;;;5030938;28;20053;-72
2023/09/15 01:38:46;;;;;;;9.27;7.22;;;13.40;99.90;;;;;;5031042;28;20511;-72
2023/09/15 01:41:12;;;;;;;8.77;7.47;;;13.50;99.90;;;;;;5029479;28;20061;-73
2023/09/15 01:43:38;;;;;;;10.95;8.18;;;13.50;99.90;;;;;;5030653;28;20038;-76
2023/09/15 01:46:04;;;;;;;10.30;7.95;;;13.50;99.90;;;;;;5035328;28;20020;-76
2023/09/15 01:48:31;;;;;;;14.00;9.30;;;13.50;99.90;;;;;;5038680;28;20034;-76
2023/09/15 01:50:57;;;;;;;10.90;8.77;;;13.50;99.90;;;;;;5043671;28;20463;-72
2023/09/15 01:53:24;;;;;;;15.57;10.88;;;13.60;99.90;;;;;;5029149;28;20030;-72
2023/09/15 01:55:50;;;;;;;11.43;8.90;;;13.60;99.90;;;;;;5017467;28;20057;-76
2023/09/15 01:58:18;;;;;;;12.95;9.48;;;13.60;99.90;;;;;;5020764;28;20127;-76
2023/09/15 02:00:43;;;;;;;14.50;10.05;;;13.70;99.90;;;;;;5023903;28;20383;-76
2023/09/15 02:03:09;;;;;;;13.88;9.77;;;13.70;99.90;;;;;;5019516;28;20166;-72
2023/09/15 02:05:35;;;;;;;12.10;9.45;;;13.70;99.90;;;;;;5028337;28;20498;-76
2023/09/15 02:08:00;;;;;;;13.63;9.18;;;13.70;99.90;;;;;;5030462;28;20036;-72
2023/09/15 02:10:26;;;;;;;15.05;10.02;;;13.70;99.90;;;;;;5018843;28;20109;-72
2023/09/15 02:12:52;;;;;;;15.60;9.73;;;13.70;99.90;;;;;;5018418;28;20105;-76
2023/09/15 02:15:17;;;;;;;15.77;10.27;;;13.70;99.90;;;;;;5030008;28;20030;-76
2023/09/15 02:17:43;;;;;;;15.50;9.32;;;13.70;99.90;;;;;;5030262;28;20021;-76
2023/09/15 02:20:12;;;;;;;12.75;10.32;;;13.70;99.90;;;;;;5030427;28;20027;-73
2023/09/15 02:22:41;;;;;;;14.93;10.50;;;13.70;99.90;;;;;;5029411;28;20025;-73
2023/09/15 02:25:09;;;;;;;15.15;10.25;;;13.70;99.90;;;;;;5029905;28;20499;-76
2023/09/15 02:27:38;;;;;;;13.13;10.23;;;13.70;99.90;;;;;;5029996;28;20017;-72
2023/09/15 02:30:05;;;;;;;15.10;10.18;;;13.60;99.90;;;;;;5026577;28;20017;-75
2023/09/15 02:32:31;;;;;;;12.07;8.95;;;13.70;99.90;;;;;;5033592;28;20029;-76
2023/09/15 02:34:56;;;;;;;12.95;9.75;;;13.70;99.90;;;;;;5030189;28;20032;-76
2023/09/15 02:37:22;;;;;;;12.75;10.30;;;13.60;99.90;;;;;;5029884;28;20053;-77
2023/09/15 02:39:48;;;;;;;12.38;10.40;;;13.60;99.90;;;;;;5029956;28;20025;-73
2023/09/15 02:42:14;;;;;;;12.20;10.70;;;13.60;99.90;;;;;;5030029;28;20049;-73
2023/09/15 02:44:42;;;;;;;14.52;10.25;;;13.70;99.90;;;;;;5029473;28;20037;-73
2023/09/15 02:47:07;;;;;;;12.75;9.05;;;13.70;99.90;;;;;;5028488;28;20022;-73
2023/09/15 02:49:33;;;;;;;12.98;9.55;;;13.70;99.90;;;;;;5029884;28;20100;-77
2023/09/15 02:52:01;;;;;;;10.25;8.70;;;13.60;99.90;;;;;;5029056;28;20108;-77
2023/09/15 02:54:27;;;;;;;15.43;9.77;;;13.60;99.90;;;;;;5030426;28;20018;-76
2023/09/15 02:56:52;;;;;;;12.68;9.55;;;13.60;99.90;;;;;;5029782;28;20090;-73
2023/09/15 02:59:18;;;;;;;12.90;9.63;;;13.60;99.90;;;;;;5029806;28;20025;-73
2023/09/15 03:01:44;;;;;;;12.80;9.45;;;13.60;99.90;;;;;;5027919;28;20021;-73
2023/09/15 03:04:09;;;;;;;10.48;9.32;;;13.60;99.90;;;;;;5018469;28;20455;-72
2023/09/15 03:06:35;;;;;;;10.70;8.05;;;13.60;99.90;;;;;;5028185;28;20475;-72
2023/09/15 03:09:01;;;;;;;12.75;8.88;;;13.60;99.90;;;;;;5029617;28;20022;-73
2023/09/15 03:11:26;;;;;;;12.95;9.15;;;13.60;99.90;;;;;;5028058;28;20013;-77
2023/09/15 03:13:52;;;;;;;9.95;8.60;;;13.60;99.90;;;;;;5029797;28;20025;-76
2023/09/15 03:16:18;;;;;;;11.85;8.60;;;13.60;99.90;;;;;;5029095;28;20022;-73
2023/09/15 03:18:46;;;;;;;13.75;9.82;;;13.60;99.90;;;;;;5029305;28;20024;-73
2023/09/15 03:21:12;;;;;;;16.02;9.90;;;13.60;99.90;;;;;;5029602;28;20026;-76
2023/09/15 03:23:38;;;;;;;14.27;11.23;;;13.60;99.90;;;;;;5028911;28;20098;-76
2023/09/15 03:26:05;;;;;;;19.05;12.00;;;13.60;99.90;;;;;;5029442;28;20058;-77
2023/09/15 03:28:32;;;;;;;17.85;13.68;;;13.60;99.90;;;;;;5020898;28;20029;-73
2023/09/15 03:30:58;;;;;;;20.75;14.45;;;13.60;99.90;;;;;;5031947;28;20041;-77
2023/09/15 03:33:24;;;;;;;21.90;14.38;;;13.50;99.90;;;;;;5031325;28;20107;-77
2023/09/15 03:35:49;;;;;;;21.20;14.25;;;13.60;99.90;;;;;;5030945;28;20032;-73
2023/09/15 03:38:15;;;;;;;20.20;14.73;;;13.50;99.90;;;;;;5018743;28;20038;-76
2023/09/15 03:40:41;;;;;;;20.65;13.35;;;13.50;99.90;;;;;;5031320;28;20025;-76
2023/09/15 03:43:06;;;;;;;22.38;14.38;;;13.50;99.90;;;;;;5029063;28;20014;-77
2023/09/15 03:45:34;;;;;;;20.38;14.55;;;13.60;99.90;;;;;;5028941;28;20038;-76
2023/09/15 03:47:59;;;;;;;21.27;13.88;;;13.60;99.90;;;;;;5017259;28;20017;-76
2023/09/15 03:50:26;;;;;;;16.10;12.05;;;13.60;99.90;;;;;;5030131;28;20098;-76
2023/09/15 03:52:51;;;;;;;18.55;13.20;;;13.60;99.90;;;;;;5018540;28;20014;-76
2023/09/15 03:55:17;;;;;;;21.48;13.30;;;13.60;99.90;;;;;;5028932;28;20100;-77
2023/09/15 03:57:43;;;;;;;18.67;13.82;;;13.70;99.90;;;;;;5031360;28;20067;-77
2023/09/15 04:00:15;;;;;;;17.77;13.88;;;13.70;99.90;;;;;;5033859;28;20018;-73
2023/09/15 04:02:41;;;;;;;12.60;10.18;;;13.60;99.90;;;;;;5015175;28;20406;-73
2023/09/15 04:05:07;;;;;;;18.13;13.23;;;13.60;99.90;;;;;;5028538;28;20112;-72
2023/09/15 04:07:33;;;;;;;16.17;11.65;;;13.60;99.90;;;;;;5032262;28;20102;-76
2023/09/15 04:09:58;;;;;;;15.68;11.60;;;13.60;99.90;;;;;;5032623;28;20055;-76
2023/09/15 04:12:24;;;;;;;14.88;9.98;;;13.60;99.90;;;;;;5034163;28;20118;-72
2023/09/15 04:14:50;;;;;;;20.10;11.60;;;13.50;99.90;;;;;;5040612;28;20157;-73
2023/09/15 04:17:15;;;;;;;12.52;8.82;;;13.50;99.90;;;;;;5037135;28;20034;-72
2023/09/15 04:19:41;;;;;;;12.95;9.70;;;13.50;99.90;;;;;;5040558;28;20029;-72
2023/09/15 04:22:07;;;;;;;18.63;10.88;;;13.40;99.90;;;;;;5042370;28;20022;-77
2023/09/15 04:24:32;;;;;;;12.45;9.95;;;13.40;99.90;;;;;;5030339;28;20033;-73
2023/09/15 04:26:58;;;;;;;15.98;11.00;;;13.40;99.90;;;;;;5033132;28;20023;-77
2023/09/15 04:29:23;;;;;;;12.80;10.00;;;13.30;99.90;;;;;;5030726;28;20040;-77
2023/09/15 04:31:49;;;;;;;14.73;11.13;;;13.30;99.90;;;;;;5035180;28;20029;-73
2023/09/15 04:34:15;;;;;;;13.20;9.85;;;13.30;99.90;;;;;;5039357;28;20025;-72
2023/09/15 04:36:40;;;;;;;13.55;10.10;;;13.30;99.90;;;;;;5037165;28;20021;-76
2023/09/15 04:39:07;;;;;;;13.48;10.18;;;13.20;99.90;;;;;;5033291;28;20053;-73
2023/09/15 04:41:33;;;;;;;15.15;10.55;;;13.20;99.90;;;;;;5039734;28;20036;-73
2023/09/15 04:43:58;;;;;;;14.20;9.55;;;13.20;99.90;;;;;;5042796;28;20025;-73
2023/09/15 04:46:24;;;;;;;20.92;11.00;;;13.10;99.90;;;;;;5043495;28;20032;-72
2023/09/15 04:48:50;;;;;;;16.95;10.95;;;13.10;99.90;;;;;;5028969;28;20025;-77
2023/09/15 04:51:16;;;;;;;17.67;10.15;;;13.10;99.90;;;;;;5030107;28;20025;-73
2023/09/15 04:53:42;;;;;;;14.43;10.02;;;13.20;99.90;;;;;;5029511;28;20033;-72
2023/09/15 04:56:08;;;;;;;13.10;9.55;;;13.20;99.90;;;;;;5031318;28;20026;-72
2023/09/15 04:58:33;;;;;;;14.32;9.80;;;13.20;99.90;;;;;;5030346;28;20103;-76
2023/09/15 05:01:00;;;;;;;11.73;9.57;;;13.30;99.90;;;;;;5031535;28;20032;-73
2023/09/15 05:03:26;;;;;;;13.00;9.52;;;13.30;99.90;;;;;;5031017;28;20021;-76
2023/09/15 05:05:52;;;;;;;12.45;9.80;;;13.30;99.90;;;;;;5031558;28;20392;-77
2023/09/15 05:08:18;;;;;;;11.43;9.00;;;13.30;99.90;;;;;;5031203;28;20029;-73
2023/09/15 05:10:47;;;;;;;13.27;10.55;;;13.30;99.90;;;;;;5028338;28;20022;-73
2023/09/15 05:13:13;;;;;;;12.95;9.77;;;13.40;99.90;;;;;;5030156;28;20103;-73
2023/09/15 05:15:39;;;;;;;14.57;10.70;;;13.40;99.90;;;;;;5030840;28;20041;-77
2023/09/15 05:18:04;;;;;;;15.27;10.38;;;13.40;99.90;;;;;;5030451;28;20639;-77
2023/09/15 05:20:30;;;;;;;17.13;10.77;;;13.40;99.90;;;;;;5030425;28;20131;-73
2023/09/15 05:22:56;;;;;;;14.88;9.65;;;13.50;99.90;;;;;;5027696;28;21156;-74
2023/09/15 05:25:21;;;;;;;17.55;10.18;;;13.50;99.90;;;;;;5032706;28;20038;-74
2023/09/15 05:27:47;;;;;;;19.23;10.63;;;13.50;99.90;;;;;;5031832;28;20018;-74
2023/09/15 05:30:15;;;;;;;12.95;9.48;;;13.60;99.90;;;;;;5035491;28;20025;-77
2023/09/15 05:32:41;;;;;;;12.05;8.77;;;13.60;99.90;;;;;;5031444;28;20025;-74
2023/09/15 05:35:09;;;;;;;13.32;9.02;;;13.60;99.90;;;;;;5027228;28;20021;-74
2023/09/15 05:37:35;;;;;;;14.25;8.85;;;13.70;99.90;;;;;;5034142;28;20088;-77
2023/09/15 05:40:00;;;;;;;10.52;8.13;;;13.70;99.90;;;;;;5034988;28;20065;-74
2023/09/15 05:42:26;;;;;;;12.07;8.60;;;13.80;99.90;;;;;;5029798;28;20622;-77
2023/09/15 05:44:54;;;;;;;12.50;8.38;;;13.90;99.90;;;;;;5029953;28;20038;-74
2023/09/15 05:47:23;;;;;;;11.05;8.10;;;13.90;99.90;;;;;;5035761;28;20479;-74
2023/09/15 05:49:49;;;;;;;9.73;7.55;;;14.00;99.90;;;;;;5032831;28;20034;-77
2023/09/15 05:52:14;;;;;;;10.15;8.13;;;14.10;99.90;;;;;;5033895;28;20109;-74
2023/09/15 05:54:40;;;;;;;12.60;8.73;;;14.20;99.90;;;;;;5029906;28;20028;-74
2023/09/15 05:57:06;;;;;;;10.63;8.00;;;14.40;99.90;;;;;;5038245;28;20467;-76
2023/09/15 05:59:31;;;;;;;9.75;7.40;;;14.60;99.90;;;;;;5036437;28;20029;-74
2023/09/15 06:01:57;;;;;;;10.73;6.50;;;14.70;99.90;;;;;;5027272;28;20034;-74
2023/09/15 06:04:23;;;;;;;9.90;6.93;;;14.90;99.90;;;;;;5027840;28;20033;-74
2023/09/15 06:06:48;;;;;;;8.15;6.28;;;15.10;99.90;;;;;;5028161;28;20017;-77
2023/09/15 06:09:14;;;;;;;8.13;5.80;;;15.30;99.90;;;;;;5030887;28;20020;-74
2023/09/15 06:11:40;;;;;;;7.32;5.72;;;15.40;99.90;;;;;;5029894;28;20021;-77
2023/09/15 06:14:06;;;;;;;6.18;4.85;;;15.50;99.90;;;;;;5025862;28;20018;-77
2023/09/15 06:16:36;;;;;;;9.77;5.93;;;15.70;99.90;;;;;;5028755;28;20098;-77
2023/09/15 06:19:02;;;;;;;7.93;5.20;;;15.80;99.90;;;;;;5029172;28;20024;-77
2023/09/15 06:21:28;;;;;;;5.75;4.20;;;16.00;99.90;;;;;;5029035;28;20026;-77
2023/09/15 06:23:54;;;;;;;5.47;4.40;;;16.10;99.90;;;;;;5029627;28;20104;-77
2023/09/15 06:26:21;;;;;;;8.38;4.00;;;16.30;99.90;;;;;;5029982;28;20551;-74
2023/09/15 06:28:47;;;;;;;4.88;3.92;;;16.40;99.90;;;;;;5030126;28;20485;-77
2023/09/15 06:31:12;;;;;;;3.97;3.40;;;16.60;99.90;;;;;;5029948;28;20017;-77
2023/09/15 06:33:38;;;;;;;4.88;2.70;;;16.70;99.90;;;;;;5029652;28;20074;-77
2023/09/15 06:36:04;;;;;;;5.45;3.13;;;16.70;99.90;;;;;;5030879;28;20029;-76
2023/09/15 06:38:31;;;;;;;4.55;3.05;;;16.50;99.90;;;;;;5030788;28;20046;-77
2023/09/15 06:40:57;;;;;;;4.95;3.10;;;16.40;99.90;;;;;;5030456;28;20402;-74
2023/09/15 06:43:23;;;;;;;3.85;3.20;;;16.40;99.90;;;;;;5028867;28;20022;-77
2023/09/15 06:45:48;;;;;;;5.07;3.40;;;16.50;99.90;;;;;;5033650;28;20474;-73
2023/09/15 06:48:14;;;;;;;4.43;3.45;;;16.50;99.90;;;;;;5038032;28;20071;-74
2023/09/15 06:50:39;;;;;;;4.85;3.65;;;16.50;99.90;;;;;;5029944;28;20030;-77
2023/09/15 06:53:05;;;;;;;5.70;3.67;;;16.50;99.90;;;;;;5029864;28;20455;-74
2023/09/15 06:55:32;;;;;;;6.38;3.13;;;16.60;99.90;;;;;;5029754;28;20021;-74
2023/09/15 06:57:58;;;;;;;5.18;3.13;;;16.70;99.90;;;;;;5029703;28;20134;-77
2023/09/15 07:00:24;;;;;;;7.03;3.58;;;16.90;99.90;;;;;;5028403;28;20100;-77
2023/09/15 07:02:49;;;;;;;5.53;3.90;;;17.00;99.90;;;;;;5020642;28;20041;-77
2023/09/15 07:05:15;;;;;;;7.05;4.30;;;17.10;99.90;;;;;;5025820;28;20036;-77
2023/09/15 07:07:41;;;;;;;4.85;3.85;;;17.30;99.90;;;;;;5039151;28;20056;-74
2023/09/15 07:10:08;;;;;;;4.82;4.35;;;17.40;99.90;;;;;;5048607;28;20013;-73
2023/09/15 07:12:33;;;;;;;6.47;4.15;;;17.50;99.90;;;;;;5036908;28;20439;-74
2023/09/15 07:15:03;;;;;;;5.07;3.65;;;17.60;99.90;;;;;;5028129;28;20112;-77
2023/09/15 07:17:29;;;;;;;6.35;4.35;;;17.70;99.90;;;;;;5044751;28;20032;-77
2023/09/15 07:19:54;;;;;;;8.80;4.65;;;17.80;99.90;;;;;;5034206;28;20470;-77
2023/09/15 07:22:20;;;;;;;6.72;3.85;;;17.80;99.90;;;;;;5037240;28;20033;-77
2023/09/15 07:24:45;;;;;;;6.22;4.30;;;17.80;99.90;;;;;;5033699;28;20443;-77
2023/09/15 07:27:11;;;;;;;3.67;3.35;;;18.00;99.90;;;;;;5037149;28;20029;-74
2023/09/15 07:29:38;;;;;;;5.40;3.60;;;17.90;99.90;;;;;;5045547;28;20021;-77
2023/09/15 07:32:04;;;;;;;4.63;3.53;;;18.00;99.90;;;;;;5049086;28;20017;-74
2023/09/15 07:34:30;;;;;;;4.18;3.72;;;18.20;99.90;;;;;;5043289;28;20022;-73
2023/09/15 07:36:56;;;;;;;3.83;3.50;;;18.20;99.90;;;;;;5032506;28;20031;-74
2023/09/15 07:39:22;;;;;;;5.20;3.15;;;18.20;99.90;;;;;;5044384;28;20021;-77
2023/09/15 07:41:47;;;;;;;4.93;3.40;;;18.30;99.90;;;;;;5031500;28;20045;-74
2023/09/15 07:44:13;;;;;;;5.47;3.13;;;18.50;99.90;;;;;;5036971;28;20048;-74
2023/09/15 07:46:40;;;;;;;4.85;3.45;;;18.60;99.90;;;;;;5033244;28;20109;-74
2023/09/15 07:49:07;;;;;;;5.82;3.95;;;18.70;99.90;;;;;;5032247;28;20089;-77
2023/09/15 07:51:33;;;;;;;7.85;4.40;;;18.80;99.90;;;;;;5043591;28;20066;-74
2023/09/15 07:53:58;;;;;;;6.05;3.67;;;18.90;99.90;;;;;;5046743;28;20025;-77
2023/09/15 07:56:25;;;;;;;4.38;3.88;;;19.00;99.10;;;;;;5050308;28;20029;-74
2023/09/15 07:58:50;;;;;;;4.85;3.55;;;19.00;98.10;;;;;;5047742;28;20529;-77
2023/09/15 08:01:17;;;;;;;4.72;3.60;;;19.20;99.90;;;;;;5049965;28;20048;-77
2023/09/15 08:03:43;;;;;;;4.05;3.03;;;19.30;97.40;;;;;;5023717;28;20426;-77
2023/09/15 08:06:09;;;;;;;3.63;2.92;;;19.30;91.00;;;;;;5051992;28;20021;-77
2023/09/15 08:08:35;;;;;;;3.63;2.33;;;19.50;84.70;;;;;;5049868;28;20036;-77
2023/09/15 08:11:01;;;;;;;3.83;3.28;;;19.60;79.10;;;;;;5051855;28;20470;-74
2023/09/15 08:13:26;;;;;;;2.47;2.28;;;19.50;77.60;;;;;;5036860;28;20115;-77
2023/09/15 08:15:52;;;;;;;4.88;2.80;;;19.70;79.10;;;;;;5051363;28;20462;-77
2023/09/15 08:18:18;;;;;;;2.83;2.13;;;19.60;74.10;;;;;;5036732;28;20371;-74
2023/09/15 08:20:44;;;;;;;3.65;2.25;;;19.60;72.60;;;;;;5050544;28;20032;-77
2023/09/15 08:23:11;;;;;;;4.60;2.40;;;19.60;73.00;;;;;;5038032;28;20053;-74
2023/09/15 08:25:36;;;;;;;2.58;2.08;;;19.40;67.50;;;;;;5050308;28;20029;-78
2023/09/15 08:28:03;;;;;;;2.83;2.25;;;19.50;68.20;;;;;;5050854;28;20021;-74
2023/09/15 08:30:29;;;;;;;2.65;2.08;;;19.60;68.50;;;;;;5051476;28;20013;-77
2023/09/15 08:32:55;;;;;;;2.83;1.70;;;19.60;69.60;;;;;;5049540;28;20019;-77
2023/09/15 08:35:21;;;;;;;3.05;1.92;;;19.50;67.40;;;;;;5038650;28;20052;-74
2023/09/15 08:37:48;;;;;;;1.70;1.60;;;19.10;68.70;;;;;;5042777;28;20407;-77
2023/09/15 08:40:14;;;;;;;3.67;1.92;;;18.90;70.50;;;;;;5044022;28;20044;-74
2023/09/15 08:42:40;;;;;;;2.45;2.20;;;18.90;70.70;;;;;;5043389;28;20025;-78
2023/09/15 08:45:07;;;;;;;4.57;2.78;;;19.00;71.50;;;;;;5043313;28;20040;-78
2023/09/15 08:47:36;;;;;;;2.30;2.08;;;19.20;71.40;;;;;;5030432;28;20021;-74
2023/09/15 08:50:03;;;;;;;2.33;1.92;;;19.00;72.50;;;;;;5030214;28;20474;-78
2023/09/15 08:52:30;;;;;;;2.55;2.25;;;19.10;74.40;;;;;;5037830;28;20028;-74
2023/09/15 08:54:56;;;;;;;3.35;2.40;;;19.20;75.10;;;;;;5049872;28;20045;-77
2023/09/15 08:57:24;;;;;;;5.63;3.25;;;19.10;75.00;;;;;;5037814;28;20017;-74
2023/09/15 08:59:51;;;;;;;4.45;3.03;;;19.10;75.60;;;;;;5035799;28;20021;-75
2023/09/15 09:02:17;;;;;;;3.58;2.30;;;19.20;75.30;;;;;;5013422;28;20014;-74
2023/09/15 09:04:42;;;;;;;4.18;2.83;;;19.40;74.40;;;;;;5024912;28;20039;-76
2023/09/15 09:07:10;;;;;;;5.07;3.35;;;19.50;75.20;;;;;;5031231;28;20391;-74
2023/09/15 09:09:37;;;;;;;4.82;2.38;;;19.50;73.30;;;;;;5031390;28;20424;-74
2023/09/15 09:12:03;;;;;;;2.88;2.15;;;19.60;71.20;;;;;;5031344;28;20068;-77
2023/09/15 09:14:29;;;;;;;4.07;3.67;;;19.70;70.10;;;;;;5029771;28;20032;-74
2023/09/15 09:16:56;;;;;;;5.35;3.63;;;19.80;68.20;;;;;;5030859;28;20474;-78
2023/09/15 09:19:23;;;;;;;5.47;2.80;;;19.90;68.30;;;;;;5030804;28;20021;-77
2023/09/15 09:21:59;;;;;;;5.45;2.30;;;19.90;67.50;;;;;;5029713;28;20116;-77
2023/09/15 09:24:24;;;;;;;3.03;1.80;;;19.90;66.50;;;;;;5031316;28;20037;-73
2023/09/15 09:26:56;;;;;;;3.72;2.70;;;19.90;65.90;;;;;;5050259;28;20025;-74
2023/09/15 09:29:27;;;;;;;3.63;2.65;;;20.00;66.40;;;;;;5049373;28;20109;-73
2023/09/15 09:31:53;;;;;;;2.92;2.65;;;19.90;66.80;;;;;;5050141;28;20035;-73
2023/09/15 09:34:19;;;;;;;2.47;2.28;;;20.00;66.40;;;;;;5036582;28;20021;-74
2023/09/15 09:36:52;;;;;;;2.97;2.70;;;20.20;67.60;;;;;;5041897;28;20078;-74
2023/09/15 09:39:18;;;;;;;2.00;1.80;;;20.30;68.10;;;;;;5037602;28;20058;-77
2023/09/15 09:41:44;;;;;;;3.95;2.22;;;20.40;64.90;;;;;;5035597;28;20010;-75
2023/09/15 09:44:12;;;;;;;3.08;2.42;;;20.10;62.60;;;;;;5030627;28;20395;-76
2023/09/15 09:46:40;;;;;;;5.10;2.42;;;20.20;64.50;;;;;;5030382;28;20018;-74
2023/09/15 09:49:06;;;;;;;6.32;2.08;;;20.20;65.80;;;;;;5029075;28;20483;-74
2023/09/15 09:51:32;;;;;;;3.10;1.88;;;20.30;66.90;;;;;;5029264;28;20125;-76
2023/09/15 09:53:58;;;;;;;2.33;1.58;;;20.30;65.30;;;;;;5028771;28;20021;-76
2023/09/15 09:56:24;;;;;;;2.55;1.73;;;20.30;61.20;;;;;;5030322;28;20082;-74
2023/09/15 09:58:49;;;;;;;1.58;1.48;;;20.20;61.60;;;;;;5030299;28;20022;-74
2023/09/15 10:01:15;;;;;;;2.22;2.00;;;20.00;59.20;;;;;;5032160;28;20391;-76
2023/09/15 10:03:41;;;;;;;2.17;1.75;;;20.00;59.20;;;;;;5023747;28;20014;-76
2023/09/15 10:06:08;;;;;;;6.65;1.95;;;19.90;58.30;;;;;;5048703;28;20032;-74
2023/09/15 10:08:34;;;;;;;2.45;1.85;;;20.00;58.30;;;;;;5040146;28;20030;-76
2023/09/15 10:11:00;;;;;;;2.15;1.50;;;19.90;59.50;;;;;;5020244;28;20056;-76
2023/09/15 10:13:28;;;;;;;2.60;1.77;;;20.00;58.80;;;;;;5038392;28;20088;-76
2023/09/15 10:15:55;;;;;;;2.97;1.98;;;20.10;59.80;;;;;;5030141;28;20021;-76
2023/09/15 10:18:21;;;;;;;4.32;2.25;;;20.00;59.20;;;;;;5041527;28;20027;-76
2023/09/15 10:20:50;;;;;;;2.05;1.20;;;20.00;59.50;;;;;;5031740;28;20043;-76
2023/09/15 10:23:16;;;;;;;1.92;1.60;;;20.00;59.30;;;;;;5041650;28;20021;-76
2023/09/15 10:25:45;;;;;;;1.77;1.67;;;20.20;60.50;;;;;;5030014;28;20086;-76
2023/09/15 10:28:11;;;;;;;3.13;2.08;;;20.10;59.90;;;;;;5041102;28;20449;-74
2023/09/15 10:30:38;;;;;;;2.15;1.95;;;20.20;59.50;;;;;;5029702;28;20035;-74
2023/09/15 10:33:09;;;;;;;3.13;1.50;;;20.30;58.10;;;;;;5039326;28;20021;-74
2023/09/15 10:35:37;;;;;;;2.63;2.15;;;20.20;56.20;;;;;;5034138;28;20022;-76
2023/09/15 10:38:03;;;;;;;2.90;1.73;;;20.20;58.30;;;;;;5035175;28;20045;-76
2023/09/15 10:40:46;;;;;;;2.88;1.92;;;20.20;58.30;;;;;;5029933;28;20018;-74
2023/09/15 10:43:12;;;;;;;3.55;1.90;;;20.30;58.50;;;;;;5035241;28;20074;-74
2023/09/15 10:45:38;;;;;;;3.70;1.70;;;20.40;59.00;;;;;;5028413;28;20105;-76
2023/09/15 10:48:04;;;;;;;2.20;1.45;;;20.40;57.80;;;;;;5042083;28;20454;-76
2023/09/15 10:50:39;;;;;;;3.53;1.75;;;20.50;58.50;;;;;;5040255;28;20442;-74
2023/09/15 10:53:12;;;;;;;2.30;1.90;;;20.40;57.80;;;;;;5029749;28;20026;-74
2023/09/15 10:55:40;;;;;;;3.40;2.03;;;20.50;58.80;;;;;;5040210;28;20095;-74
2023/09/15 10:58:06;;;;;;;3.33;2.08;;;20.50;58.80;;;;;;5029555;28;20026;-74
2023/09/15 11:00:33;;;;;;;3.10;1.90;;;20.40;58.80;;;;;;5029740;28;20143;-76
2023/09/15 11:02:59;;;;;;;3.00;1.85;;;20.40;59.50;;;;;;5019378;28;20060;-76
2023/09/15 11:05:27;;;;;;;3.10;2.20;;;20.50;59.80;;;;;;5033812;28;20033;-74
2023/09/15 11:07:56;;;;;;;4.07;2.25;;;20.60;60.90;;;;;;5050783;28;20130;-76
2023/09/15 11:10:31;;;;;;;3.20;1.73;;;20.60;60.90;;;;;;5046360;28;20033;-74
2023/09/15 11:13:03;;;;;;;2.72;1.90;;;20.40;60.90;;;;;;5046617;28;20479;-74
2023/09/15 11:15:29;;;;;;;3.42;2.22;;;20.20;61.20;;;;;;5052789;28;20028;-76
2023/09/15 11:17:56;;;;;;;3.72;1.85;;;20.30;62.90;;;;;;5043957;28;20025;-76
2023/09/15 11:20:22;;;;;;;4.60;2.13;;;20.30;63.00;;;;;;5039558;28;20026;-76
2023/09/15 11:22:54;;;;;;;4.53;2.30;;;20.40;63.10;;;;;;5032906;28;20013;-76
2023/09/15 11:25:20;;;;;;;3.20;1.75;;;20.60;63.50;;;;;;5039336;28;20029;-74
2023/09/15 11:27:49;;;;;;;2.33;1.70;;;20.60;63.70;;;;;;5042216;28;20067;-76
2023/09/15 11:30:16;;;;;;;2.42;1.60;;;20.30;59.90;;;;;;5047659;28;20017;-74
2023/09/15 11:32:42;;;;;;;2.60;1.90;;;20.30;60.50;;;;;;5034396;28;20355;-74
2023/09/15 11:35:11;;;;;;;4.10;1.90;;;20.40;61.10;;;;;;5038353;28;20074;-74
2023/09/15 11:37:38;;;;;;;1.70;1.50;;;20.50;60.80;;;;;;5041807;28;20056;-76
2023/09/15 11:40:07;;;;;;;2.75;1.88;;;20.50;62.30;;;;;;5034973;28;20060;-76
2023/09/15 11:42:33;;;;;;;3.22;1.95;;;20.50;61.50;;;;;;5041472;28;20021;-76
2023/09/15 11:44:59;;;;;;;3.50;1.70;;;20.40;61.50;;;;;;5034412;28;20034;-76
2023/09/15 11:47:30;;;;;;;3.95;1.83;;;20.40;61.30;;;;;;5041219;28;20431;-74
2023/09/15 11:50:00;;;;;;;2.58;1.90;;;20.50;61.60;;;;;;5033589;28;20021;-76
2023/09/15 11:52:27;;;;;;;1.92;1.58;;;20.60;62.40;;;;;;5043853;28;20104;-76
2023/09/15 11:54:53;;;;;;;3.50;1.58;;;20.50;61.50;;;;;;5038460;28;20438;-76
2023/09/15 11:57:20;;;;;;;2.78;2.13;;;20.60;62.00;;;;;;5037783;28;20057;-74
2023/09/15 11:59:46;;;;;;;2.97;2.35;;;20.70;63.20;;;;;;5032389;28;20448;-74
2023/09/15 12:02:16;;;;;;;2.85;1.60;;;20.60;62.20;;;;;;5027085;28;20029;-76
2023/09/15 12:04:41;;;;;;;5.93;1.83;;;20.60;62.10;;;;;;5038191;28;20112;-76
2023/09/15 12:07:07;;;;;;;4.05;1.80;;;20.80;64.00;;;;;;5031102;28;20155;-74
2023/09/15 12:09:33;;;;;;;3.50;1.85;;;20.90;63.60;;;;;;5032417;28;20033;-76
2023/09/15 12:11:59;;;;;;;2.28;1.88;;;20.90;63.40;;;;;;5031918;28;20478;-74
2023/09/15 12:14:25;;;;;;;3.30;2.50;;;20.90;63.40;;;;;;5030851;28;20024;-76
2023/09/15 12:16:50;;;;;;;2.65;2.00;;;20.90;64.30;;;;;;5019162;28;20092;-76
2023/09/15 12:19:17;;;;;;;3.72;2.00;;;20.80;63.30;;;;;;5042323;28;20028;-72
2023/09/15 12:21:53;;;;;;;3.78;2.30;;;21.00;64.60;;;;;;5030750;28;20032;-72
2023/09/15 12:24:22;;;;;;;4.05;2.42;;;21.20;64.30;;;;;;5043370;28;20029;-74
2023/09/15 12:26:48;;;;;;;2.38;2.15;;;21.20;64.10;;;;;;5033973;28;20029;-75
2023/09/15 12:29:16;;;;;;;4.78;2.10;;;21.20;62.60;;;;;;5033060;28;20044;-74
2023/09/15 12:31:46;;;;;;;3.78;2.53;;;21.00;64.00;;;;;;5032756;28;20039;-74
2023/09/15 12:34:19;;;;;;;2.22;1.67;;;20.80;63.50;;;;;;5031747;28;20082;-74
2023/09/15 12:36:49;;;;;;;2.50;2.28;;;20.70;63.70;;;;;;5025820;28;20021;-74
2023/09/15 12:39:15;;;;;;;5.15;2.35;;;20.70;63.90;;;;;;5026708;28;20042;-73